メインページ
METAR-TAF:

METAR-TAF

空港 :

アルハンゲリスク, ロシア

緯度: 64-30N, 経度: 040-44E, 海抜: 13m

現時点の気象観測

当レポートは30分前の05:30(UTC)に作成
の風 8kt、東/南東から南西の間で変化する
気温 20°C
湿度 88%
気圧 1010 hPa
視程10km以上
高度3300ftの雲はほとんどない

METAR: ULAA 200530Z 18004MPS 120V230 9999 FEW033 20/18 Q1010 R26/CLRD70 NOSIG RMK QFE756/1008

時間: 09:00 (06:00 UTC)

予報

当レポートは52分前の05:08(UTC)に作成
予報は20日の 06時(UTC)から 21日の 06時(UTC)まで有効
南/南東の風 10kt
視程10km以上
高度1100ftの千切れ雲あり
20日の 06時(UTC)から 20日の 09時(UTC)まで一時的に
の風 10kt、最大21ktの突風を伴う
視程: 2000m
高度1000ftの千切れ雲あり, 積乱雲.
激しい雷雨, 雨
20日の 09時(UTC)から 20日の 18時(UTC)まで一時的に
の風 10kt、最大19ktの突風を伴う
視程: 3100m
高度1100ftの千切れ雲あり, 積乱雲.
激しい雷雨, 小雨
20日の 18時(UTC)から 20日の 24時(UTC)まで一時的に
南西の風 10kt
視程: 3100m
高度1100ftの雲は散在している, 積乱雲.
弱いにわか雨, 靄

TAF: ULAA 200508Z 2006/2106 16005MPS 9999 BKN011 TEMPO 2006/2009 19005G11MPS 2000 TSRA BKN010CB TEMPO 2009/2018 17005G10MPS 3100 -TSRA BKN011CB TEMPO 2018/2024 23005MPS 3100 -SHRA BR SCT011CB

4,000以上の空港の気象観測と天気予報(METAR報とTAF報)

利用可能な観測所は地図上に黄色い丸と赤い丸で示す。

丸の上にカーソルを重ねると観測所名を参照できる。

次にクリックすると気象観測と天気予報を参照できる。

マップの切り替え:黒色「×」印の緑ボタンをクリックして拡大、「-」印の緑ボタンをクリックして縮小、緑色の三角印をクリックして隣りの地図に切り替え


METAR-TAF: